Startpagina
METAR-TAF:

METAR-TAF

Vliegvelden :

Vliegbasis Volkel

Uden, Nederland

breedte: 51-39N, lengte: 005-42E, hoogte: 22 m

Actueel weer

Dit bericht is 33 minuten geleden gemaakt, om 07:25 UTC
Wind 3 kt uit het zuidzuidoosten, variërend tussen het oostzuidoosten en het zuiden
Temperatuur 8°C
Vochtigheid 93%
Druk 1022 hPa
Zicht 10 km of meer
Geheel bewolkt op 24000 ft

METAR: EHVK 180725Z AUTO 16003KT 120V180 9999 OVC240 08/07 Q1022 BLU NOSIG

Tijdstip: 09:58 (07:58 UTC)

Verwachting

Dit bericht is 3 uur en het 28 minuten geleden gemaakt, om 04:30 UTC
Verwachting geldig van 18 om 05 UTC tot 18 om 17 UTC
Wind 5 kt uit het zuiden
Zicht 10 km of meer
geen wolken onder 1500 m en geen cumulonimbus

TAF: EHVK 180430Z 1805/1817 18005KT CAVOK

Waarnemingen en weersverwachtingen van meer dan 4000 vliegvelden (METAR en TAF).

De beschikbare stations zijn de gele en rode punten op de kaart.

Ga met uw muis naar het station om de naam te zien.

Klik dan om waarnemingen en weersverwachtingen te zien.

kaart wijzigen: klik op de groene knoppen met een zwart kruis om in te zoomen, op de groene knop met een streepje om uit te zoomen of op de groene pijlen voor aangrenzende kaarten.


METAR-TAF: